CheckWX is a tool to help pilots better visualize weather data.  It is not intended as a substitute for an official pre-flight weather briefing.

13:19:49 UTC

EGPF TAF
Glasgow International Airport
Glasgow, United Kingdom
TAF EGPF 201100Z 2012/2112 25010KT 9999 SCT030 PROB30 TEMPO 2012/2014 7000 SHRA BECMG 2018/2021 VRB05KT TEMPO 2023/2106 7000 RA BKN014 PROB30 TEMPO 2100/2107 BKN008 BECMG 2108/2111 21015G25KT

Aug-20@
12:00 UTC

Aug-20 @ 12:00 UTC

Aug-20@
18:00 UTC

Aug-20 @ 18:00 UTC

TAF EGPF 201100Z 2012/2112 25010KT 9999 SCT030
Wind
  • 250° at 10 KTS
Cloud Levels
  • Scattered at 3,000' AGL

Aug-20@
12:00 UTC

Aug-20 @ 12:00 UTC

Aug-20@
14:00 UTC

Aug-20 @ 14:00 UTC

PROB30 TEMPO 2012/2014 7000 SHRA

Temporary - 30% Likelihood

Temporary - 30% Likelihood during this time.

Conditions
Rain

Aug-20@
18:00 UTC

Aug-20 @ 18:00 UTC

Aug-21@
08:00 UTC

Aug-21 @ 08:00 UTC

BECMG 2018/2021 VRB05KT

Becoming

Becoming Conditions expected by Tue, Aug 20, 2019 @ 21:00 UTC

Wind
  • Variable at 5 KTS
Cloud Levels
  • Scattered at 3,000' AGL

Aug-20@
23:00 UTC

Aug-20 @ 23:00 UTC

Aug-21@
06:00 UTC

Aug-21 @ 06:00 UTC

TEMPO 2023/2106 7000 RA BKN014

Temporary

Temporary Changes expected for less than half the time period

Conditions
Rain
Cloud Levels
  • Broken at 1,400' AGL

Aug-21@
00:00 UTC

Aug-21 @ 00:00 UTC

Aug-21@
07:00 UTC

Aug-21 @ 07:00 UTC

PROB30 TEMPO 2100/2107 BKN008

Temporary - 30% Likelihood

Temporary - 30% Likelihood during this time.

Cloud Levels
  • Broken at 800' AGL

Aug-21@
08:00 UTC

Aug-21 @ 08:00 UTC

Aug-21@
12:00 UTC

Aug-21 @ 12:00 UTC

BECMG 2108/2111 21015G25KT

Becoming

Becoming Conditions expected by Wed, Aug 21, 2019 @ 11:00 UTC

Wind
  • 210° at 15 KTS
  • {Gusting to 25 KTS
Cloud Levels
  • Scattered at 3,000' AGL